createdAt,value
2018-06-19T00:00:44.477Z,2.90
2018-06-19T00:02:16.387Z,3.50
2018-06-19T00:03:48.099Z,3.70
2018-06-19T00:05:19.908Z,2.70
2018-06-19T00:06:51.719Z,2.40
2018-06-19T00:08:23.530Z,2.50
2018-06-19T00:09:55.340Z,2.80
2018-06-19T00:11:27.152Z,2.70
2018-06-19T00:12:58.963Z,2.40
2018-06-19T00:14:30.872Z,3.70
2018-06-19T00:16:02.607Z,3.50
2018-06-19T00:17:34.394Z,4.30
2018-06-19T00:19:06.205Z,4.90
2018-06-19T00:20:38.017Z,3.60
2018-06-19T00:22:09.825Z,3.30
2018-06-19T00:23:41.637Z,3.60
2018-06-19T00:25:13.453Z,4.20
2018-06-19T00:26:45.257Z,4.60
2018-06-19T00:28:17.067Z,4.20
2018-06-19T00:29:48.878Z,6.80
2018-06-19T00:31:20.688Z,4.80
2018-06-19T00:32:52.600Z,5.60
2018-06-19T00:34:24.310Z,5.40
2018-06-19T00:35:56.126Z,4.90
2018-06-19T00:37:27.931Z,5.60
2018-06-19T00:38:59.741Z,5.20
2018-06-19T00:40:31.552Z,7.40
2018-06-19T00:42:03.362Z,5.10
2018-06-19T00:43:35.173Z,7.10
2018-06-19T00:45:06.983Z,7.40
2018-06-19T00:46:38.794Z,5.60
2018-06-19T00:48:10.607Z,6.10
2018-06-19T00:49:42.415Z,7.30
2018-06-19T00:51:14.327Z,6.20
2018-06-19T00:52:46.037Z,7.20
2018-06-19T00:54:17.848Z,8.10
2018-06-19T00:55:49.659Z,7.10
2018-06-19T00:57:21.470Z,7.10
2018-06-19T00:58:53.280Z,8.70
2018-06-19T01:00:25.094Z,11.40
2018-06-19T01:01:56.900Z,11.50
2018-06-19T01:03:28.710Z,11.60
2018-06-19T01:05:00.521Z,10.40
2018-06-19T01:06:32.331Z,11.90
2018-06-19T01:08:04.143Z,10.30
2018-06-19T01:09:36.053Z,8.80
2018-06-19T01:11:07.764Z,9.40
2018-06-19T01:12:39.576Z,9.40
2018-06-19T01:14:11.385Z,8.80
2018-06-19T01:15:43.195Z,12.00
2018-06-19T01:17:15.007Z,11.50
2018-06-19T01:18:46.817Z,11.80
2018-06-19T01:20:18.627Z,11.20
2018-06-19T01:21:50.439Z,11.30
2018-06-19T01:23:22.249Z,10.40
2018-06-19T01:24:54.060Z,10.40
2018-06-19T01:26:25.874Z,11.10
2018-06-19T01:27:57.782Z,9.40
2018-06-19T01:29:29.499Z,11.20
2018-06-19T01:31:01.303Z,10.90
2018-06-19T01:32:33.115Z,11.20
2018-06-19T01:34:05.027Z,9.70
2018-06-19T01:35:36.737Z,9.50
2018-06-19T01:37:08.548Z,10.40
2018-06-19T01:38:40.360Z,9.70
2018-06-19T01:40:12.171Z,9.50
2018-06-19T01:41:43.981Z,9.30
2018-06-19T01:43:15.793Z,9.40
2018-06-19T01:44:47.603Z,10.30
2018-06-19T01:46:19.515Z,7.70
2018-06-19T01:47:51.224Z,10.50
2018-06-19T01:49:23.035Z,10.00
2018-06-19T01:50:54.845Z,11.60
2018-06-19T01:52:26.665Z,6.50
2018-06-19T01:53:58.467Z,7.50
2018-06-19T01:55:30.278Z,11.60
2018-06-19T01:57:02.089Z,9.60
2018-06-19T01:58:33.899Z,9.40
2018-06-19T02:00:05.710Z,9.20
2018-06-19T02:01:37.521Z,10.30
2018-06-19T02:03:09.331Z,7.70
2018-06-19T02:04:41.392Z,6.40
2018-06-19T02:06:12.952Z,8.50
2018-06-19T02:07:44.763Z,8.90
2018-06-19T02:09:16.576Z,8.50
2018-06-19T02:10:48.383Z,6.60
2018-06-19T02:12:20.195Z,9.30
2018-06-19T02:13:52.005Z,8.00
2018-06-19T02:15:23.817Z,6.90
2018-06-19T02:16:55.627Z,6.90
2018-06-19T02:18:27.437Z,7.10
2018-06-19T02:19:59.247Z,6.80
2018-06-19T02:21:31.058Z,6.80
2018-06-19T02:23:02.969Z,5.50
2018-06-19T02:24:34.681Z,6.50
2018-06-19T02:26:06.489Z,6.40
2018-06-19T02:27:38.301Z,6.90
2018-06-19T02:29:10.110Z,7.90
2018-06-19T02:30:41.922Z,6.70
2018-06-19T02:32:13.732Z,7.70
2018-06-19T02:33:45.542Z,10.40
2018-06-19T02:35:17.352Z,7.20
2018-06-19T02:36:49.162Z,9.70
2018-06-19T02:38:20.973Z,8.90
2018-06-19T02:39:52.785Z,8.80
2018-06-19T02:41:24.694Z,8.80
2018-06-19T02:42:56.406Z,8.70
2018-06-19T02:44:28.214Z,8.30
2018-06-19T02:46:00.043Z,7.40
2018-06-19T02:47:31.835Z,6.70
2018-06-19T02:49:03.647Z,8.70
2018-06-19T02:50:35.458Z,6.60
2018-06-19T02:52:07.272Z,6.10
2018-06-19T02:53:39.078Z,9.50
2018-06-19T02:55:10.890Z,8.60
2018-06-19T02:56:42.701Z,8.40
2018-06-19T02:58:14.509Z,7.80
2018-06-19T02:59:46.425Z,9.80
2018-06-19T03:01:18.132Z,6.50
2018-06-19T03:02:49.945Z,6.90
2018-06-19T03:04:21.752Z,7.30
2018-06-19T03:05:53.664Z,4.40
2018-06-19T03:07:25.374Z,7.60
2018-06-19T03:08:57.184Z,4.60
2018-06-19T03:10:28.996Z,4.40
2018-06-19T03:12:00.811Z,4.20
2018-06-19T03:13:32.617Z,4.70
2018-06-19T03:15:04.428Z,5.00
2018-06-19T03:16:36.238Z,3.80
2018-06-19T03:18:08.149Z,3.30
2018-06-19T03:19:39.884Z,4.70
2018-06-19T03:21:11.669Z,2.70
2018-06-19T03:22:43.479Z,3.40
2018-06-19T03:24:15.290Z,3.50
2018-06-19T03:25:47.101Z,2.00
2018-06-19T03:27:18.916Z,1.70
2018-06-19T03:28:50.722Z,2.00
2018-06-19T03:30:22.661Z,3.00
2018-06-19T03:31:54.343Z,2.80
2018-06-19T03:33:26.153Z,3.50
2018-06-19T03:34:57.964Z,4.50
2018-06-19T03:36:30.024Z,5.70
2018-06-19T03:38:01.586Z,5.10
2018-06-19T03:39:33.393Z,6.70
2018-06-19T03:41:05.204Z,4.60
2018-06-19T03:42:37.014Z,6.80
2018-06-19T03:44:08.825Z,5.60
2018-06-19T03:45:40.635Z,5.60
2018-06-19T03:47:12.446Z,4.70
2018-06-19T03:48:44.255Z,4.90
2018-06-19T03:50:16.064Z,4.60
2018-06-19T03:51:47.874Z,6.20
2018-06-19T03:53:19.686Z,5.60
2018-06-19T03:54:51.596Z,6.30
2018-06-19T03:56:23.305Z,8.70
2018-06-19T03:57:55.114Z,6.20
2018-06-19T03:59:26.925Z,7.70
2018-06-19T04:00:58.735Z,8.00
2018-06-19T04:02:30.546Z,7.40
2018-06-19T04:04:02.356Z,6.90
2018-06-19T04:05:34.168Z,8.20
2018-06-19T04:07:06.076Z,8.40
2018-06-19T04:08:37.784Z,7.60
2018-06-19T04:10:09.595Z,7.90
2018-06-19T04:11:41.409Z,7.60
2018-06-19T04:13:13.315Z,8.20
2018-06-19T04:14:45.025Z,7.40
2018-06-19T04:16:16.840Z,7.90
2018-06-19T04:17:48.649Z,5.60
2018-06-19T04:19:20.456Z,10.90
2018-06-19T04:20:52.267Z,10.10
2018-06-19T04:22:24.079Z,8.00
2018-06-19T04:23:55.888Z,8.90
2018-06-19T04:25:27.699Z,10.20
2018-06-19T04:26:59.510Z,7.80
2018-06-19T04:28:31.319Z,8.70
2018-06-19T04:30:03.131Z,11.10
2018-06-19T04:31:35.042Z,10.20
2018-06-19T04:33:06.752Z,7.30
2018-06-19T04:34:38.564Z,7.80
2018-06-19T04:36:10.371Z,7.00
2018-06-19T04:37:42.281Z,9.10
2018-06-19T04:39:13.992Z,9.40
2018-06-19T04:40:45.802Z,8.60
2018-06-19T04:42:17.612Z,7.10
2018-06-19T04:43:49.422Z,7.20
2018-06-19T04:45:21.232Z,8.40
2018-06-19T04:46:53.042Z,9.60
2018-06-19T04:48:24.852Z,18.90
2018-06-19T04:49:56.762Z,15.70
2018-06-19T04:51:28.474Z,16.10
2018-06-19T04:53:00.282Z,18.00
2018-06-19T04:54:32.093Z,12.80
2018-06-19T04:56:03.902Z,10.50
2018-06-19T04:57:35.714Z,13.10
2018-06-19T04:59:07.527Z,14.50
2018-06-19T05:00:39.332Z,14.50
2018-06-19T05:02:11.146Z,13.90
2018-06-19T05:03:42.991Z,15.20
2018-06-19T05:05:14.762Z,14.80
2018-06-19T05:06:46.571Z,14.40
2018-06-19T05:08:18.481Z,14.40
2018-06-19T05:09:50.191Z,14.80
2018-06-19T05:11:22.006Z,16.20
2018-06-19T05:12:53.827Z,15.20
2018-06-19T05:14:25.622Z,17.50
2018-06-19T05:15:57.431Z,15.20
2018-06-19T05:17:29.240Z,17.20
2018-06-19T05:19:01.051Z,15.90
2018-06-19T05:20:32.864Z,19.00
2018-06-19T05:22:04.670Z,22.20
2018-06-19T05:23:36.480Z,21.20
2018-06-19T05:25:08.290Z,23.90
2018-06-19T05:26:40.200Z,29.10
2018-06-19T05:28:11.910Z,28.20
2018-06-19T05:29:43.721Z,29.60
2018-06-19T05:31:15.529Z,29.10
2018-06-19T05:32:47.340Z,31.00
2018-06-19T05:34:19.149Z,33.80
2018-06-19T05:35:50.959Z,33.80
2018-06-19T05:37:22.769Z,35.60
2018-06-19T05:38:54.682Z,32.90
2018-06-19T05:40:26.388Z,24.80
2018-06-19T05:41:58.198Z,27.10
2018-06-19T05:43:30.009Z,32.90
2018-06-19T05:45:01.919Z,27.20
2018-06-19T05:46:33.628Z,29.80
2018-06-19T05:48:05.437Z,31.30
2018-06-19T05:49:37.247Z,24.40
2018-06-19T05:51:09.057Z,26.20
2018-06-19T05:52:40.869Z,24.70
2018-06-19T05:54:12.677Z,24.50
2018-06-19T05:55:44.487Z,22.40
2018-06-19T05:57:16.298Z,25.30
2018-06-19T05:58:48.106Z,25.30
2018-06-19T06:00:19.920Z,24.70
2018-06-19T06:01:51.728Z,26.10
2018-06-19T06:03:23.637Z,27.60
2018-06-19T06:04:55.347Z,29.10
2018-06-19T06:06:27.156Z,30.20
2018-06-19T06:07:58.965Z,27.50
2018-06-19T06:09:30.875Z,27.60
2018-06-19T06:11:02.590Z,27.70
2018-06-19T06:12:34.396Z,29.20
2018-06-19T06:14:06.203Z,27.90
2018-06-19T06:15:38.100Z,32.10
2018-06-19T06:17:09.823Z,28.30
2018-06-19T06:18:41.638Z,29.50
2018-06-19T06:20:13.443Z,28.80
2018-06-19T06:21:45.454Z,23.90
2018-06-19T06:23:17.063Z,26.10
2018-06-19T06:24:48.880Z,25.00
2018-06-19T06:26:20.687Z,24.20
2018-06-19T06:27:52.493Z,21.00
2018-06-19T06:29:24.303Z,22.50
2018-06-19T06:30:56.113Z,21.10
2018-06-19T06:32:27.923Z,23.20
2018-06-19T06:33:59.732Z,22.90
2018-06-19T06:35:31.543Z,20.30
2018-06-19T06:37:03.387Z,20.00
2018-06-19T06:38:35.163Z,21.90
2018-06-19T06:40:07.474Z,22.00
2018-06-19T06:41:38.784Z,22.60
2018-06-19T06:43:10.593Z,22.10
2018-06-19T06:44:42.408Z,19.30
2018-06-19T06:46:14.213Z,18.40
2018-06-19T06:47:46.023Z,19.70
2018-06-19T06:49:17.833Z,17.70
2018-06-19T06:50:49.643Z,20.10
2018-06-19T06:52:21.454Z,20.30
2018-06-19T06:53:53.263Z,21.50
2018-06-19T06:55:25.074Z,23.10
2018-06-19T06:56:56.885Z,17.70
2018-06-19T06:58:28.845Z,20.70
2018-06-19T07:00:00.503Z,20.60
2018-06-19T07:01:32.315Z,18.80
2018-06-19T07:03:04.129Z,24.50
2018-06-19T07:04:35.938Z,24.30
2018-06-19T07:06:07.746Z,20.90
2018-06-19T07:07:39.614Z,19.50
2018-06-19T07:09:11.364Z,24.30
2018-06-19T07:10:43.274Z,21.90
2018-06-19T07:12:14.985Z,24.80
2018-06-19T07:13:46.795Z,25.90
2018-06-19T07:15:18.604Z,27.50
2018-06-19T07:16:50.515Z,28.80
2018-06-19T07:18:22.224Z,28.20
2018-06-19T07:19:54.032Z,33.40
2018-06-19T07:21:25.845Z,31.60
2018-06-19T07:22:57.652Z,33.40
2018-06-19T07:24:29.460Z,33.90
2018-06-19T07:26:01.392Z,35.90
2018-06-19T07:27:33.081Z,34.70
2018-06-19T07:29:04.889Z,28.40
2018-06-19T07:30:36.702Z,33.40
2018-06-19T07:32:08.582Z,28.10
2018-06-19T07:33:40.319Z,32.60
2018-06-19T07:35:12.228Z,31.00
2018-06-19T07:36:43.993Z,30.50
2018-06-19T07:38:15.804Z,37.60
2018-06-19T07:39:47.555Z,34.20
2018-06-19T07:41:19.465Z,40.20
2018-06-19T07:42:51.175Z,39.20
2018-06-19T07:44:22.983Z,47.00
2018-06-19T07:45:54.793Z,46.00
2018-06-19T07:47:26.602Z,48.70
2018-06-19T07:48:58.411Z,50.30
2018-06-19T07:50:30.220Z,53.40
2018-06-19T07:52:02.031Z,55.30
2018-06-19T07:53:33.939Z,55.30
2018-06-19T07:55:05.650Z,56.10
2018-06-19T07:56:37.458Z,61.80
2018-06-19T07:58:09.270Z,62.40
2018-06-19T07:59:41.106Z,62.50
2018-06-19T08:01:12.885Z,56.70
2018-06-19T08:02:44.694Z,59.30
2018-06-19T08:04:16.507Z,58.50
2018-06-19T08:05:48.315Z,59.50
2018-06-19T08:07:20.122Z,59.40
2018-06-19T08:08:51.935Z,53.00
2018-06-19T08:10:23.740Z,54.40
2018-06-19T08:11:56.000Z,57.40
2018-06-19T08:13:27.413Z,51.50
2018-06-19T08:14:59.168Z,41.80
2018-06-19T08:16:30.981Z,48.70
2018-06-19T08:18:02.787Z,49.20
2018-06-19T08:19:34.597Z,51.50
2018-06-19T08:21:06.407Z,49.20
2018-06-19T08:22:38.215Z,51.30
2018-06-19T08:24:10.025Z,46.80
2018-06-19T08:25:41.834Z,48.50
2018-06-19T08:27:13.644Z,51.50
2018-06-19T08:28:45.454Z,45.20
2018-06-19T08:30:17.366Z,48.70
2018-06-19T08:31:49.073Z,51.30
2018-06-19T08:33:20.883Z,50.50
2018-06-19T08:34:52.692Z,56.90
2018-06-19T08:36:24.503Z,54.20
2018-06-19T08:37:56.312Z,54.50
2018-06-19T08:39:28.120Z,64.20
2018-06-19T08:40:59.930Z,70.50
2018-06-19T08:42:31.839Z,61.50
2018-06-19T08:44:03.549Z,63.40
2018-06-19T08:45:35.361Z,64.50
2018-06-19T08:47:07.173Z,71.20
2018-06-19T08:48:39.077Z,55.70
2018-06-19T08:50:10.787Z,57.40
2018-06-19T08:51:42.597Z,52.30
2018-06-19T08:53:14.403Z,54.00
2018-06-19T08:54:46.213Z,61.60
2018-06-19T08:56:20.827Z,58.40
2018-06-19T08:57:49.832Z,50.90
2018-06-19T08:59:21.642Z,54.20
2018-06-19T09:00:53.451Z,57.10
2018-06-19T09:02:25.259Z,54.40
2018-06-19T09:03:57.069Z,50.70
2018-06-19T09:05:28.877Z,50.10
2018-06-19T09:07:00.788Z,51.70
2018-06-19T09:08:32.496Z,48.90
2018-06-19T09:10:04.306Z,44.10
2018-06-19T09:11:36.115Z,45.90
2018-06-19T09:13:08.024Z,41.40
2018-06-19T09:14:39.734Z,35.40
2018-06-19T09:16:11.545Z,42.90
2018-06-19T09:17:43.352Z,37.00
2018-06-19T09:19:15.162Z,40.90
2018-06-19T09:20:46.971Z,37.20
2018-06-19T09:22:18.781Z,33.80
2018-06-19T09:23:50.590Z,31.20
2018-06-19T09:25:22.500Z,30.80
2018-06-19T09:26:54.209Z,33.90
2018-06-19T09:28:26.019Z,30.50
2018-06-19T09:29:57.829Z,35.20
2018-06-19T09:31:29.652Z,35.60
2018-06-19T09:33:01.449Z,33.90
2018-06-19T09:34:33.257Z,36.80
2018-06-19T09:36:05.066Z,30.00
2018-06-19T09:37:36.879Z,31.90
2018-06-19T09:39:08.689Z,31.50
2018-06-19T09:40:40.496Z,26.60
2018-06-19T09:42:12.304Z,36.40
2018-06-19T09:43:44.364Z,34.60
2018-06-19T09:45:15.923Z,31.70
2018-06-19T09:46:47.732Z,26.80
2018-06-19T09:48:19.543Z,29.50
2018-06-19T09:49:51.351Z,25.10
2018-06-19T09:51:23.161Z,29.80
2018-06-19T09:52:54.975Z,27.50
2018-06-19T09:54:26.780Z,24.40
2018-06-19T09:55:58.590Z,25.60
2018-06-19T09:57:30.399Z,27.30
2018-06-19T09:59:02.275Z,26.80
2018-06-19T10:00:34.020Z,24.50
2018-06-19T10:02:05.928Z,25.80
2018-06-19T10:03:37.636Z,23.30
2018-06-19T10:05:09.750Z,23.30
2018-06-19T10:06:41.260Z,23.90
2018-06-19T10:08:13.066Z,20.50
2018-06-19T10:09:44.875Z,21.00
2018-06-19T10:11:16.685Z,22.00
2018-06-19T10:12:48.496Z,19.10
2018-06-19T10:14:20.407Z,20.90
2018-06-19T10:15:52.116Z,20.50
2018-06-19T10:17:23.975Z,22.50
2018-06-19T10:20:27.852Z,18.90
2018-06-19T10:21:59.356Z,19.10
2018-06-19T10:23:31.168Z,18.20
2018-06-19T10:25:02.975Z,23.70
2018-06-19T10:26:34.786Z,21.80
2018-06-19T10:28:06.597Z,21.30
2018-06-19T10:29:38.422Z,23.10
2018-06-19T10:31:10.217Z,19.90
2018-06-19T10:32:42.028Z,24.30
2018-06-19T10:34:13.838Z,20.80
2018-06-19T10:35:45.649Z,21.00
2018-06-19T10:37:17.565Z,22.80
2018-06-19T10:38:49.420Z,17.80
2018-06-19T10:40:21.079Z,20.00
2018-06-19T10:41:53.093Z,19.20
2018-06-19T10:43:24.736Z,18.40
2018-06-19T10:46:28.324Z,17.80
2018-06-19T10:48:00.440Z,18.50
2018-06-19T10:49:31.946Z,18.10
2018-06-19T10:55:39.602Z,12.70
2018-06-19T10:57:11.088Z,13.70
2018-06-19T10:58:42.823Z,14.70
2018-06-19T11:00:14.639Z,17.60
2018-06-19T11:01:47.093Z,14.00
2018-06-19T11:03:18.273Z,15.70
2018-06-19T11:06:21.891Z,17.20
2018-06-19T11:09:25.521Z,14.90
2018-06-19T11:10:57.539Z,14.80
2018-06-19T11:12:29.149Z,13.40
2018-06-19T11:14:00.981Z,13.50
2018-06-19T11:15:32.878Z,12.30
2018-06-19T11:17:04.593Z,11.00
2018-06-19T11:18:36.421Z,9.70
2018-06-19T11:20:08.364Z,9.00
2018-06-19T11:21:40.253Z,9.50
2018-06-19T11:23:11.882Z,11.80
2018-06-19T11:24:43.668Z,10.70
2018-06-19T11:26:15.483Z,7.40
2018-06-19T11:27:47.913Z,7.20
2018-06-19T11:29:19.418Z,6.20
2018-06-19T11:32:22.822Z,5.10
2018-06-19T11:33:54.746Z,6.70
2018-06-19T11:35:26.397Z,4.50
2018-06-19T11:36:58.659Z,6.00
2018-06-19T11:40:01.823Z,6.60
2018-06-19T11:41:33.839Z,5.30
2018-06-19T11:43:05.452Z,4.90
2018-06-19T11:44:37.627Z,8.00
2018-06-19T11:46:09.139Z,8.50
2018-06-19T11:47:41.204Z,5.90
2018-06-19T11:49:12.944Z,4.50
2018-06-19T11:50:44.537Z,4.90
2018-06-19T11:52:16.574Z,5.70
2018-06-19T11:53:48.384Z,4.30
2018-06-19T11:55:20.296Z,4.80
2018-06-19T11:56:51.881Z,5.90
2018-06-19T11:58:23.828Z,5.90
2018-06-19T12:01:27.243Z,5.00
2018-06-19T12:02:59.381Z,5.80
2018-06-19T12:04:30.948Z,6.30
2018-06-19T12:06:02.688Z,9.10
2018-06-19T12:07:34.502Z,5.80
2018-06-19T12:09:06.523Z,6.70
2018-06-19T12:10:38.229Z,6.40
2018-06-19T12:15:14.177Z,7.10
2018-06-19T12:18:17.255Z,8.60
2018-06-19T12:19:49.518Z,7.90
2018-06-19T12:21:21.341Z,9.20
2018-06-19T12:22:52.944Z,9.30
2018-06-19T12:24:24.517Z,7.70
2018-06-19T12:25:56.469Z,9.30
2018-06-19T12:27:28.385Z,8.90
2018-06-19T12:29:00.502Z,8.80
2018-06-19T12:30:31.809Z,9.50
2018-06-19T12:32:03.524Z,9.00
2018-06-19T12:33:35.975Z,8.60
2018-06-19T12:35:07.421Z,8.70
2018-06-19T12:38:10.784Z,8.60
2018-06-19T12:39:42.597Z,8.50
2018-06-19T12:41:14.943Z,9.20
2018-06-19T12:42:46.233Z,9.10
2018-06-19T12:44:18.162Z,9.00
2018-06-19T12:45:50.057Z,8.30
2018-06-19T12:47:21.712Z,8.10
2018-06-19T12:48:53.684Z,8.60
2018-06-19T12:50:25.536Z,9.50
2018-06-19T12:55:01.667Z,9.40
2018-06-19T12:56:32.911Z,8.30
2018-06-19T12:58:04.421Z,8.70
2018-06-19T13:01:08.015Z,8.20
2018-06-19T13:02:39.829Z,9.80
2018-06-19T13:04:11.631Z,8.90
2018-06-19T13:05:43.445Z,8.80
2018-06-19T13:07:15.407Z,10.40
2018-06-19T13:08:47.176Z,10.20
2018-06-19T13:10:18.894Z,9.10
2018-06-19T13:11:50.732Z,9.60
2018-06-19T13:14:54.944Z,8.90
2018-06-19T13:16:26.416Z,9.10
2018-06-19T13:17:57.977Z,9.80
2018-06-19T13:19:30.084Z,9.40
2018-06-19T13:21:01.833Z,8.70
2018-06-19T13:22:33.716Z,9.60
2018-06-19T13:24:05.239Z,10.50
2018-06-19T13:25:37.571Z,9.00
2018-06-19T13:27:08.960Z,10.50
2018-06-19T13:28:40.689Z,9.30
2018-06-19T13:30:12.580Z,10.30
2018-06-19T13:31:44.500Z,8.80
2018-06-19T13:33:16.122Z,9.50
2018-06-19T13:36:19.813Z,9.70
2018-06-19T13:37:51.880Z,9.90
2018-06-19T13:39:23.457Z,9.20
2018-06-19T13:40:56.013Z,9.80
2018-06-19T13:42:27.015Z,9.10
2018-06-19T13:43:58.826Z,9.20
2018-06-19T13:47:02.735Z,10.30
2018-06-19T13:48:34.273Z,10.00
2018-06-19T13:50:06.096Z,9.60
2018-06-19T13:51:37.906Z,9.20
2018-06-19T13:53:09.973Z,9.70
2018-06-19T13:54:41.537Z,9.60
2018-06-19T13:56:13.604Z,9.80
2018-06-19T13:57:45.169Z,9.60
2018-06-19T13:59:17.184Z,10.00
2018-06-19T14:00:48.801Z,8.90
2018-06-19T14:02:20.621Z,9.60
2018-06-19T14:03:52.685Z,10.80
2018-06-19T14:05:24.501Z,10.30
2018-06-19T14:08:27.976Z,10.90
2018-06-19T14:09:59.801Z,10.80
2018-06-19T14:11:31.519Z,9.90
2018-06-19T14:13:03.337Z,8.90
2018-06-19T14:14:35.374Z,8.60
2018-06-19T14:16:07.263Z,9.00
2018-06-19T14:17:39.499Z,9.60
2018-06-19T14:20:42.459Z,10.40
2018-06-19T14:25:17.984Z,10.50
2018-06-19T14:26:50.614Z,10.70
2018-06-19T14:28:21.533Z,10.50
2018-06-19T14:29:53.774Z,9.80
2018-06-19T14:32:57.122Z,9.50
2018-06-19T14:34:28.806Z,9.30
2018-06-19T14:37:32.441Z,9.70
2018-06-19T14:39:04.527Z,9.40
2018-06-19T14:40:36.083Z,9.60
2018-06-19T14:42:07.949Z,9.20
2018-06-19T14:45:11.846Z,8.40
2018-06-19T14:48:15.188Z,9.00
2018-06-19T14:49:47.010Z,9.20
2018-06-19T14:51:19.135Z,10.00
2018-06-19T14:52:50.855Z,9.60
2018-06-19T14:55:54.601Z,8.90
2018-06-19T14:58:58.151Z,9.20
2018-06-19T15:00:29.844Z,9.30
2018-06-19T15:02:01.787Z,9.00
2018-06-19T15:05:05.334Z,9.50
2018-06-19T15:06:37.582Z,9.40
2018-06-19T15:09:40.693Z,10.60
2018-06-19T15:12:44.337Z,12.00
2018-06-19T15:14:16.158Z,10.50
2018-06-19T15:15:47.980Z,9.70
2018-06-19T15:17:19.881Z,10.20
2018-06-19T15:18:51.624Z,10.80
2018-06-19T15:20:23.671Z,10.90
2018-06-19T15:21:55.468Z,10.30
2018-06-19T15:23:27.087Z,10.30
2018-06-19T15:29:34.729Z,11.60
2018-06-19T15:31:06.783Z,11.80
2018-06-19T15:32:38.019Z,10.70
2018-06-19T15:34:09.840Z,11.10
2018-06-19T15:35:42.302Z,11.70
2018-06-19T15:37:13.925Z,11.10
2018-06-19T15:38:45.942Z,11.30
2018-06-19T15:40:17.136Z,11.10
2018-06-19T15:41:49.073Z,12.10
2018-06-19T15:43:21.329Z,12.60
2018-06-19T15:44:52.607Z,11.00
2018-06-19T15:46:24.475Z,11.50
2018-06-19T15:47:57.336Z,12.30
2018-06-19T15:52:31.738Z,12.40
2018-06-19T15:54:03.750Z,11.60
2018-06-19T15:55:35.703Z,10.90
2018-06-19T15:57:07.765Z,12.40
2018-06-19T15:58:39.163Z,12.30
2018-06-19T16:00:10.952Z,11.20
2018-06-19T16:01:42.876Z,12.60
2018-06-19T16:03:14.773Z,11.40
2018-06-19T16:04:46.608Z,11.10
2018-06-19T16:06:18.233Z,11.90
2018-06-19T16:07:49.961Z,11.00
2018-06-19T16:12:25.634Z,12.20
2018-06-19T16:13:57.241Z,11.80
2018-06-19T16:15:29.050Z,11.30
2018-06-19T16:17:00.865Z,12.30
2018-06-19T16:18:32.687Z,12.00
2018-06-19T16:20:04.635Z,10.60
2018-06-19T16:21:36.334Z,11.10
2018-06-19T16:23:08.261Z,10.50
2018-06-19T16:24:40.130Z,11.40
2018-06-19T16:26:12.464Z,10.40
2018-06-19T16:29:15.443Z,12.60
2018-06-19T16:32:19.720Z,10.40
2018-06-19T16:33:51.213Z,9.60
2018-06-19T16:35:22.732Z,10.60
2018-06-19T16:38:26.581Z,12.60
2018-06-19T16:39:58.201Z,11.20
2018-06-19T16:41:30.032Z,11.00
2018-06-19T16:43:01.856Z,10.90
2018-06-19T16:44:33.767Z,12.10
2018-06-19T16:46:05.993Z,11.70
2018-06-19T16:47:37.310Z,12.20
2018-06-19T16:49:09.176Z,10.50
2018-06-19T16:50:41.488Z,10.20
2018-06-19T16:52:12.776Z,10.50
2018-06-19T16:53:44.663Z,10.20
2018-06-19T16:55:16.424Z,9.70
2018-06-19T16:56:48.244Z,10.80
2018-06-19T16:58:20.069Z,10.40
2018-06-19T16:59:51.886Z,10.70
2018-06-19T17:01:23.726Z,9.40
2018-06-19T17:02:55.633Z,10.10
2018-06-19T17:04:27.354Z,9.70
2018-06-19T17:05:59.176Z,10.80
2018-06-19T17:07:30.999Z,10.00
2018-06-19T17:09:02.823Z,10.20
2018-06-19T17:10:34.642Z,10.10
2018-06-19T17:12:06.463Z,9.80
2018-06-19T17:13:38.377Z,10.20
2018-06-19T17:15:10.577Z,10.30
2018-06-19T17:16:41.930Z,9.50
2018-06-19T17:18:13.755Z,12.30
2018-06-19T17:19:45.574Z,9.80
2018-06-19T17:21:17.521Z,9.00
2018-06-19T17:22:49.221Z,11.20
2018-06-19T17:24:21.052Z,10.30
2018-06-19T17:25:52.957Z,10.00
2018-06-19T17:27:25.484Z,10.20
2018-06-19T17:28:56.507Z,9.90
2018-06-19T17:30:28.326Z,10.10
2018-06-19T17:32:00.149Z,8.70
2018-06-19T17:33:31.972Z,9.00
2018-06-19T17:35:04.096Z,8.90
2018-06-19T17:36:35.830Z,8.90
2018-06-19T17:38:07.439Z,8.20
2018-06-19T17:39:39.360Z,8.00
2018-06-19T17:41:11.086Z,9.10
2018-06-19T17:42:42.903Z,9.30
2018-06-19T17:44:14.729Z,9.20
2018-06-19T17:45:47.080Z,8.30
2018-06-19T17:47:18.573Z,9.80
2018-06-19T17:48:50.212Z,10.30
2018-06-19T17:50:22.014Z,9.30
2018-06-19T17:53:25.658Z,10.90
2018-06-19T17:54:57.637Z,9.50
2018-06-19T17:56:29.304Z,10.20
2018-06-19T17:58:01.425Z,10.60
2018-06-19T17:59:33.196Z,8.90
2018-06-19T18:01:04.795Z,9.50
2018-06-19T18:02:36.589Z,10.00
2018-06-19T18:04:08.410Z,11.90
2018-06-19T18:05:40.233Z,14.00
2018-06-19T18:08:44.253Z,10.20
2018-06-19T18:11:47.727Z,10.60
2018-06-19T18:13:19.343Z,11.70
2018-06-19T18:14:51.162Z,10.70
2018-06-19T18:16:23.045Z,10.80
2018-06-19T18:17:54.905Z,10.40
2018-06-19T18:19:26.626Z,12.00
2018-06-19T18:20:58.452Z,10.70
2018-06-19T18:22:30.265Z,10.80
2018-06-19T18:25:33.933Z,11.20
2018-06-19T18:27:05.744Z,10.40
2018-06-19T18:30:09.673Z,12.70
2018-06-19T18:31:41.194Z,11.90
2018-06-19T18:33:13.082Z,11.20
2018-06-19T18:34:44.830Z,11.10
2018-06-19T18:36:16.651Z,11.70
2018-06-19T18:37:48.828Z,11.60
2018-06-19T18:39:20.336Z,11.80
2018-06-19T18:40:52.115Z,13.50
2018-06-19T18:42:23.934Z,11.30
2018-06-19T18:43:55.755Z,12.20
2018-06-19T18:46:59.443Z,11.70
2018-06-19T18:48:31.515Z,11.70
2018-06-19T18:50:03.566Z,12.40
2018-06-19T18:51:34.851Z,11.20
2018-06-19T18:53:06.672Z,11.70
2018-06-19T18:54:38.496Z,25.10
2018-06-19T18:56:10.412Z,31.00
2018-06-19T18:57:42.436Z,36.40
2018-06-19T18:59:13.953Z,35.10
2018-06-19T19:00:45.778Z,33.40
2018-06-19T19:03:49.414Z,41.10
2018-06-19T19:05:21.236Z,38.60
2018-06-19T19:06:53.052Z,41.70
2018-06-19T19:08:24.916Z,43.70
2018-06-19T19:09:56.689Z,40.70
2018-06-19T19:11:28.548Z,38.10
2018-06-19T19:13:00.328Z,38.60
2018-06-19T19:14:32.450Z,38.90
2018-06-19T19:16:04.147Z,38.10
2018-06-19T19:17:35.786Z,36.90
2018-06-19T19:19:07.668Z,36.80
2018-06-19T19:20:39.418Z,36.70
2018-06-19T19:22:11.237Z,32.70
2018-06-19T19:23:43.103Z,33.10
2018-06-19T19:25:15.072Z,31.10
2018-06-19T19:26:46.733Z,33.20
2018-06-19T19:28:18.732Z,33.40
2018-06-19T19:29:50.324Z,33.90
2018-06-19T19:31:22.137Z,29.70
2018-06-19T19:32:53.978Z,34.60
2018-06-19T19:34:25.869Z,32.90
2018-06-19T19:35:57.587Z,36.30
2018-06-19T19:37:29.705Z,30.80
2018-06-19T19:39:01.223Z,35.90
2018-06-19T19:40:33.033Z,32.70
2018-06-19T19:42:04.848Z,35.80
2018-06-19T19:43:36.663Z,34.10
2018-06-19T19:45:08.483Z,34.90
2018-06-19T19:46:40.295Z,31.70
2018-06-19T19:48:12.155Z,36.00
2018-06-19T19:49:43.937Z,38.70
2018-06-19T19:51:15.738Z,35.60
2018-06-19T19:52:47.761Z,36.60
2018-06-19T19:54:19.398Z,38.10
2018-06-19T19:55:51.183Z,36.80
2018-06-19T19:57:23.094Z,40.30
2018-06-19T19:58:54.810Z,40.40
2018-06-19T20:01:58.642Z,43.20
2018-06-19T20:03:30.251Z,41.10
2018-06-19T20:05:02.064Z,40.90
2018-06-19T20:06:33.951Z,42.90
2018-06-19T20:09:37.526Z,42.20
2018-06-19T20:11:09.418Z,40.90
2018-06-19T20:12:41.131Z,45.10
2018-06-19T20:14:12.945Z,47.40
2018-06-19T20:15:44.757Z,41.60
2018-06-19T20:17:16.571Z,42.30
2018-06-19T20:18:48.398Z,46.10
2018-06-19T20:20:20.196Z,40.60
2018-06-19T20:21:52.010Z,39.50
2018-06-19T20:23:24.275Z,42.00
2018-06-19T20:24:55.636Z,35.20
2018-06-19T20:26:27.448Z,39.70
2018-06-19T20:27:59.259Z,37.50
2018-06-19T20:29:31.073Z,36.90
2018-06-19T20:31:02.884Z,40.00
2018-06-19T20:37:45.635Z,39.40
2018-06-19T20:39:17.447Z,39.90
2018-06-19T20:40:49.365Z,39.40
2018-06-19T20:42:21.030Z,38.10
2018-06-19T20:43:52.840Z,34.80
2018-06-19T20:45:24.651Z,36.70
2018-06-19T20:46:56.463Z,40.20
2018-06-19T20:48:28.275Z,37.60
2018-06-19T20:50:00.088Z,39.60
2018-06-19T20:51:31.898Z,38.20
2018-06-19T20:53:03.712Z,40.40
2018-06-19T20:54:35.561Z,34.80
2018-06-19T20:56:07.336Z,34.10
2018-06-19T20:57:39.146Z,36.50
2018-06-19T20:59:11.057Z,39.30
2018-06-19T21:00:42.746Z,38.00
2018-06-19T21:02:14.558Z,35.00
2018-06-19T21:03:46.369Z,35.70
2018-06-19T21:05:18.183Z,35.80
2018-06-19T21:06:49.993Z,34.70
2018-06-19T21:08:21.805Z,40.50
2018-06-19T21:09:53.618Z,39.80
2018-06-19T21:11:25.429Z,39.00
2018-06-19T21:12:57.241Z,41.00
2018-06-19T21:14:29.053Z,35.40
2018-06-19T21:16:00.866Z,35.70
2018-06-19T21:17:32.777Z,35.10
2018-06-19T21:19:04.489Z,36.60
2018-06-19T21:20:36.301Z,38.90
2018-06-19T21:22:08.113Z,37.50